Terminal Aerodrome Forecast
Issued by NWS Twin Cities, MN

Home | Current Version | Previous Version | Graphics & Text | Print | Product List | Glossary On
Versions: 1 2 3 4 5 6 7 8 9 10 11 12 13 14 15 16 17 18 19 20 21 22 23 24 25 26 27 28 29 30
000
FTUS43 KMPX 291120
TAFMSP
TAF
KMSP 291120Z 2912/3018 07003KT 4SM BR BCFG FEW009
      TEMPO 2912/2914 SCT009 BKN014
     FM291400 15006KT P6SM SCT014
     FM291800 16006KT P6SM SKC
     FM301400 19009KT P6SM SKC=

USA.gov is the U.S. government's official web portal to all federal, state and local government web resources and services.